sensor_id;sensor_type;location;lat;lon;timestamp;P1;durP1;ratioP1;P2;durP2;ratioP2
27558;SDS011;15002;52.028;5.670;2022-09-09T00:00:17;3.97;;;2.95;;
27558;SDS011;15002;52.028;5.670;2022-09-09T00:02:46;5.05;;;2.85;;
27558;SDS011;15002;52.028;5.670;2022-09-09T00:05:26;4.60;;;2.58;;
27558;SDS011;15002;52.028;5.670;2022-09-09T00:07:59;5.47;;;3.08;;
27558;SDS011;15002;52.028;5.670;2022-09-09T00:12:57;4.35;;;3.50;;
27558;SDS011;15002;52.028;5.670;2022-09-09T00:18:26;6.57;;;4.63;;
27558;SDS011;15002;52.028;5.670;2022-09-09T00:21:15;6.65;;;4.50;;
27558;SDS011;15002;52.028;5.670;2022-09-09T00:23:53;5.80;;;4.43;;
27558;SDS011;15002;52.028;5.670;2022-09-09T00:31:33;5.88;;;4.72;;
27558;SDS011;15002;52.028;5.670;2022-09-09T00:34:09;7.00;;;4.70;;
27558;SDS011;15002;52.028;5.670;2022-09-09T00:36:52;4.80;;;3.85;;
27558;SDS011;15002;52.028;5.670;2022-09-09T00:39:27;5.80;;;4.47;;
27558;SDS011;15002;52.028;5.670;2022-09-09T00:44:58;6.00;;;4.82;;
27558;SDS011;15002;52.028;5.670;2022-09-09T00:53:51;7.28;;;4.80;;
27558;SDS011;15002;52.028;5.670;2022-09-09T00:58:30;7.50;;;4.18;;
27558;SDS011;15002;52.028;5.670;2022-09-09T01:10:56;5.05;;;4.18;;
27558;SDS011;15002;52.028;5.670;2022-09-09T01:15:59;7.18;;;4.40;;
27558;SDS011;15002;52.028;5.670;2022-09-09T01:18:37;5.47;;;4.38;;
27558;SDS011;15002;52.028;5.670;2022-09-09T01:26:35;4.60;;;3.95;;
27558;SDS011;15002;52.028;5.670;2022-09-09T01:29:06;5.45;;;3.92;;
27558;SDS011;15002;52.028;5.670;2022-09-09T01:34:20;14.45;;;4.00;;
27558;SDS011;15002;52.028;5.670;2022-09-09T01:39:32;7.53;;;4.35;;
27558;SDS011;15002;52.028;5.670;2022-09-09T01:42:00;4.32;;;3.53;;
27558;SDS011;15002;52.028;5.670;2022-09-09T01:44:27;7.22;;;4.07;;
27558;SDS011;15002;52.028;5.670;2022-09-09T01:46:53;5.63;;;3.90;;
27558;SDS011;15002;52.028;5.670;2022-09-09T01:49:19;7.18;;;4.35;;
27558;SDS011;15002;52.028;5.670;2022-09-09T01:51:44;5.32;;;3.92;;
27558;SDS011;15002;52.028;5.670;2022-09-09T01:54:14;7.03;;;3.97;;
27558;SDS011;15002;52.028;5.670;2022-09-09T01:56:43;5.03;;;3.78;;
27558;SDS011;15002;52.028;5.670;2022-09-09T02:04:50;5.20;;;3.75;;
27558;SDS011;15002;52.028;5.670;2022-09-09T02:10:19;7.35;;;4.72;;
27558;SDS011;15002;52.028;5.670;2022-09-09T02:12:48;5.20;;;3.83;;
27558;SDS011;15002;52.028;5.670;2022-09-09T02:15:30;4.80;;;3.58;;
27558;SDS011;15002;52.028;5.670;2022-09-09T02:18:00;6.47;;;4.00;;
27558;SDS011;15002;52.028;5.670;2022-09-09T02:20:32;6.43;;;3.92;;
27558;SDS011;15002;52.028;5.670;2022-09-09T02:23:01;6.90;;;3.75;;
27558;SDS011;15002;52.028;5.670;2022-09-09T02:25:28;5.53;;;3.65;;
27558;SDS011;15002;52.028;5.670;2022-09-09T02:27:54;4.88;;;3.60;;
27558;SDS011;15002;52.028;5.670;2022-09-09T02:30:23;7.13;;;3.58;;
27558;SDS011;15002;52.028;5.670;2022-09-09T02:32:48;4.13;;;3.30;;
27558;SDS011;15002;52.028;5.670;2022-09-09T02:35:19;4.60;;;3.75;;
27558;SDS011;15002;52.028;5.670;2022-09-09T02:37:49;5.57;;;4.05;;
27558;SDS011;15002;52.028;5.670;2022-09-09T02:40:19;5.03;;;3.60;;
27558;SDS011;15002;52.028;5.670;2022-09-09T02:42:47;6.22;;;4.05;;
27558;SDS011;15002;52.028;5.670;2022-09-09T02:45:16;7.15;;;4.78;;
27558;SDS011;15002;52.028;5.670;2022-09-09T02:51:12;6.68;;;4.13;;
27558;SDS011;15002;52.028;5.670;2022-09-09T02:53:58;5.90;;;3.65;;
27558;SDS011;15002;52.028;5.670;2022-09-09T02:56:35;6.82;;;4.00;;
27558;SDS011;15002;52.028;5.670;2022-09-09T02:59:06;5.65;;;4.18;;
27558;SDS011;15002;52.028;5.670;2022-09-09T03:01:32;6.53;;;4.10;;
27558;SDS011;15002;52.028;5.670;2022-09-09T03:03:58;5.90;;;4.32;;
27558;SDS011;15002;52.028;5.670;2022-09-09T03:06:24;6.88;;;4.15;;
27558;SDS011;15002;52.028;5.670;2022-09-09T03:08:50;4.60;;;4.07;;
27558;SDS011;15002;52.028;5.670;2022-09-09T03:11:16;5.28;;;4.43;;
27558;SDS011;15002;52.028;5.670;2022-09-09T03:13:42;6.95;;;4.10;;
27558;SDS011;15002;52.028;5.670;2022-09-09T03:16:07;5.93;;;4.07;;
27558;SDS011;15002;52.028;5.670;2022-09-09T03:18:33;5.65;;;4.30;;
27558;SDS011;15002;52.028;5.670;2022-09-09T03:20:59;7.97;;;4.18;;
27558;SDS011;15002;52.028;5.670;2022-09-09T03:23:25;7.20;;;3.97;;
27558;SDS011;15002;52.028;5.670;2022-09-09T03:25:51;7.10;;;4.63;;
27558;SDS011;15002;52.028;5.670;2022-09-09T03:28:17;5.95;;;3.90;;
27558;SDS011;15002;52.028;5.670;2022-09-09T03:30:43;4.38;;;3.67;;
27558;SDS011;15002;52.028;5.670;2022-09-09T03:33:09;4.55;;;4.10;;
27558;SDS011;15002;52.028;5.670;2022-09-09T03:35:35;8.70;;;4.47;;
27558;SDS011;15002;52.028;5.670;2022-09-09T03:38:01;7.40;;;4.55;;
27558;SDS011;15002;52.028;5.670;2022-09-09T03:40:26;7.63;;;4.32;;
27558;SDS011;15002;52.028;5.670;2022-09-09T03:42:52;6.40;;;4.50;;
27558;SDS011;15002;52.028;5.670;2022-09-09T03:45:18;7.97;;;4.38;;
27558;SDS011;15002;52.028;5.670;2022-09-09T03:47:43;5.07;;;4.38;;
27558;SDS011;15002;52.028;5.670;2022-09-09T03:50:09;7.53;;;4.43;;
27558;SDS011;15002;52.028;5.670;2022-09-09T03:52:39;7.72;;;4.60;;
27558;SDS011;15002;52.028;5.670;2022-09-09T03:55:06;8.80;;;4.60;;
27558;SDS011;15002;52.028;5.670;2022-09-09T03:57:33;6.53;;;4.55;;
27558;SDS011;15002;52.028;5.670;2022-09-09T04:00:00;5.32;;;4.60;;
27558;SDS011;15002;52.028;5.670;2022-09-09T04:02:30;8.02;;;4.38;;
27558;SDS011;15002;52.028;5.670;2022-09-09T04:04:55;8.02;;;4.60;;
27558;SDS011;15002;52.028;5.670;2022-09-09T04:07:21;6.88;;;4.72;;
27558;SDS011;15002;52.028;5.670;2022-09-09T04:09:47;7.25;;;4.20;;
27558;SDS011;15002;52.028;5.670;2022-09-09T04:12:13;7.95;;;4.43;;
27558;SDS011;15002;52.028;5.670;2022-09-09T04:14:38;7.75;;;4.55;;
27558;SDS011;15002;52.028;5.670;2022-09-09T04:17:04;7.13;;;4.30;;
27558;SDS011;15002;52.028;5.670;2022-09-09T04:19:31;7.78;;;4.35;;
27558;SDS011;15002;52.028;5.670;2022-09-09T04:21:57;5.05;;;4.15;;
27558;SDS011;15002;52.028;5.670;2022-09-09T04:24:23;5.07;;;4.13;;
27558;SDS011;15002;52.028;5.670;2022-09-09T04:26:51;7.53;;;4.57;;
27558;SDS011;15002;52.028;5.670;2022-09-09T04:29:17;6.97;;;4.25;;
27558;SDS011;15002;52.028;5.670;2022-09-09T04:31:43;6.43;;;4.28;;
27558;SDS011;15002;52.028;5.670;2022-09-09T04:34:09;6.43;;;4.10;;
27558;SDS011;15002;52.028;5.670;2022-09-09T04:36:35;5.70;;;4.05;;
27558;SDS011;15002;52.028;5.670;2022-09-09T04:39:01;5.10;;;4.15;;
27558;SDS011;15002;52.028;5.670;2022-09-09T04:41:27;7.65;;;4.88;;
27558;SDS011;15002;52.028;5.670;2022-09-09T04:43:53;6.90;;;4.82;;
27558;SDS011;15002;52.028;5.670;2022-09-09T04:46:20;6.50;;;4.13;;
27558;SDS011;15002;52.028;5.670;2022-09-09T04:48:47;8.55;;;4.05;;
27558;SDS011;15002;52.028;5.670;2022-09-09T04:51:14;5.65;;;4.70;;
27558;SDS011;15002;52.028;5.670;2022-09-09T04:53:40;8.75;;;4.22;;
27558;SDS011;15002;52.028;5.670;2022-09-09T04:58:31;7.82;;;3.90;;
27558;SDS011;15002;52.028;5.670;2022-09-09T05:03:34;7.00;;;4.20;;
27558;SDS011;15002;52.028;5.670;2022-09-09T05:06:04;7.10;;;4.20;;
27558;SDS011;15002;52.028;5.670;2022-09-09T05:08:30;10.13;;;4.30;;
27558;SDS011;15002;52.028;5.670;2022-09-09T05:10:56;7.55;;;4.45;;
27558;SDS011;15002;52.028;5.670;2022-09-09T05:13:21;13.73;;;4.40;;
27558;SDS011;15002;52.028;5.670;2022-09-09T05:15:54;7.28;;;4.00;;
27558;SDS011;15002;52.028;5.670;2022-09-09T05:18:20;7.40;;;3.90;;
27558;SDS011;15002;52.028;5.670;2022-09-09T05:20:47;7.60;;;3.60;;
27558;SDS011;15002;52.028;5.670;2022-09-09T05:23:14;6.13;;;3.67;;
27558;SDS011;15002;52.028;5.670;2022-09-09T05:25:39;6.53;;;3.67;;
27558;SDS011;15002;52.028;5.670;2022-09-09T05:28:06;6.85;;;3.70;;
27558;SDS011;15002;52.028;5.670;2022-09-09T05:30:32;5.90;;;3.65;;
27558;SDS011;15002;52.028;5.670;2022-09-09T05:32:59;9.00;;;3.58;;
27558;SDS011;15002;52.028;5.670;2022-09-09T05:35:25;6.65;;;3.50;;
27558;SDS011;15002;52.028;5.670;2022-09-09T05:37:52;9.90;;;3.15;;
27558;SDS011;15002;52.028;5.670;2022-09-09T05:40:17;7.68;;;3.42;;
27558;SDS011;15002;52.028;5.670;2022-09-09T05:42:43;7.45;;;3.13;;
27558;SDS011;15002;52.028;5.670;2022-09-09T05:45:09;7.13;;;3.28;;
27558;SDS011;15002;52.028;5.670;2022-09-09T05:47:35;5.70;;;3.25;;
27558;SDS011;15002;52.028;5.670;2022-09-09T05:50:02;5.40;;;3.30;;
27558;SDS011;15002;52.028;5.670;2022-09-09T05:52:28;9.00;;;3.55;;
27558;SDS011;15002;52.028;5.670;2022-09-09T05:54:54;6.15;;;3.20;;
27558;SDS011;15002;52.028;5.670;2022-09-09T05:57:21;6.03;;;2.63;;
27558;SDS011;15002;52.028;5.670;2022-09-09T05:59:47;8.52;;;3.08;;
27558;SDS011;15002;52.028;5.670;2022-09-09T06:02:13;9.00;;;3.72;;
27558;SDS011;15002;52.028;5.670;2022-09-09T06:04:39;9.25;;;3.30;;
27558;SDS011;15002;52.028;5.670;2022-09-09T06:07:04;6.28;;;2.72;;
27558;SDS011;15002;52.028;5.670;2022-09-09T06:09:30;8.45;;;3.40;;
27558;SDS011;15002;52.028;5.670;2022-09-09T06:11:56;10.63;;;3.15;;
27558;SDS011;15002;52.028;5.670;2022-09-09T06:14:23;7.00;;;2.88;;
27558;SDS011;15002;52.028;5.670;2022-09-09T06:16:50;5.75;;;3.45;;
27558;SDS011;15002;52.028;5.670;2022-09-09T06:19:16;6.22;;;2.80;;
27558;SDS011;15002;52.028;5.670;2022-09-09T06:21:42;6.72;;;2.72;;
27558;SDS011;15002;52.028;5.670;2022-09-09T06:24:09;8.38;;;2.35;;
27558;SDS011;15002;52.028;5.670;2022-09-09T06:26:36;11.18;;;2.42;;
27558;SDS011;15002;52.028;5.670;2022-09-09T06:29:05;6.73;;;2.70;;
27558;SDS011;15002;52.028;5.670;2022-09-09T06:31:32;4.80;;;2.45;;
27558;SDS011;15002;52.028;5.670;2022-09-09T06:34:02;8.32;;;3.00;;
27558;SDS011;15002;52.028;5.670;2022-09-09T06:36:31;6.40;;;2.47;;
27558;SDS011;15002;52.028;5.670;2022-09-09T06:38:58;5.45;;;2.10;;
27558;SDS011;15002;52.028;5.670;2022-09-09T06:41:25;6.05;;;2.15;;
27558;SDS011;15002;52.028;5.670;2022-09-09T06:43:53;5.45;;;2.08;;
27558;SDS011;15002;52.028;5.670;2022-09-09T06:46:21;5.78;;;2.03;;
27558;SDS011;15002;52.028;5.670;2022-09-09T06:48:55;10.48;;;2.58;;
27558;SDS011;15002;52.028;5.670;2022-09-09T06:51:22;4.13;;;2.10;;
27558;SDS011;15002;52.028;5.670;2022-09-09T06:53:51;7.07;;;2.38;;
27558;SDS011;15002;52.028;5.670;2022-09-09T06:56:19;8.23;;;2.13;;
27558;SDS011;15002;52.028;5.670;2022-09-09T06:58:53;5.57;;;2.03;;
27558;SDS011;15002;52.028;5.670;2022-09-09T07:01:21;4.32;;;1.90;;
27558;SDS011;15002;52.028;5.670;2022-09-09T07:03:49;9.10;;;3.08;;
27558;SDS011;15002;52.028;5.670;2022-09-09T07:06:19;3.97;;;1.90;;
27558;SDS011;15002;52.028;5.670;2022-09-09T07:08:50;8.07;;;2.83;;
27558;SDS011;15002;52.028;5.670;2022-09-09T07:11:17;5.82;;;2.13;;
27558;SDS011;15002;52.028;5.670;2022-09-09T07:13:44;7.80;;;2.13;;
27558;SDS011;15002;52.028;5.670;2022-09-09T07:16:11;4.32;;;1.85;;
27558;SDS011;15002;52.028;5.670;2022-09-09T07:18:39;6.60;;;2.22;;
27558;SDS011;15002;52.028;5.670;2022-09-09T07:21:05;7.45;;;2.17;;
27558;SDS011;15002;52.028;5.670;2022-09-09T07:23:31;5.35;;;1.92;;
27558;SDS011;15002;52.028;5.670;2022-09-09T07:25:58;10.48;;;2.20;;
27558;SDS011;15002;52.028;5.670;2022-09-09T07:28:24;5.85;;;2.05;;
27558;SDS011;15002;52.028;5.670;2022-09-09T07:30:55;7.20;;;2.15;;
27558;SDS011;15002;52.028;5.670;2022-09-09T07:33:22;6.13;;;1.92;;
27558;SDS011;15002;52.028;5.670;2022-09-09T07:35:49;7.63;;;2.22;;
27558;SDS011;15002;52.028;5.670;2022-09-09T07:38:15;8.93;;;1.90;;
27558;SDS011;15002;52.028;5.670;2022-09-09T07:40:50;6.18;;;2.38;;
27558;SDS011;15002;52.028;5.670;2022-09-09T07:43:17;7.82;;;2.55;;
27558;SDS011;15002;52.028;5.670;2022-09-09T07:45:44;7.63;;;2.63;;
27558;SDS011;15002;52.028;5.670;2022-09-09T07:48:09;8.57;;;2.70;;
27558;SDS011;15002;52.028;5.670;2022-09-09T07:50:35;6.90;;;2.63;;
27558;SDS011;15002;52.028;5.670;2022-09-09T07:53:01;8.07;;;2.42;;
27558;SDS011;15002;52.028;5.670;2022-09-09T07:55:27;6.55;;;2.35;;
27558;SDS011;15002;52.028;5.670;2022-09-09T07:57:53;7.72;;;2.30;;
27558;SDS011;15002;52.028;5.670;2022-09-09T08:00:20;8.60;;;2.45;;
27558;SDS011;15002;52.028;5.670;2022-09-09T08:02:47;9.95;;;2.53;;
27558;SDS011;15002;52.028;5.670;2022-09-09T08:05:13;10.20;;;2.63;;
27558;SDS011;15002;52.028;5.670;2022-09-09T08:07:39;8.15;;;2.38;;
27558;SDS011;15002;52.028;5.670;2022-09-09T08:10:05;7.97;;;2.30;;
27558;SDS011;15002;52.028;5.670;2022-09-09T08:12:34;9.52;;;3.13;;
27558;SDS011;15002;52.028;5.670;2022-09-09T08:15:05;9.85;;;2.67;;
27558;SDS011;15002;52.028;5.670;2022-09-09T08:17:31;8.43;;;2.50;;
27558;SDS011;15002;52.028;5.670;2022-09-09T08:19:57;7.50;;;2.50;;
27558;SDS011;15002;52.028;5.670;2022-09-09T08:22:23;10.02;;;2.17;;
27558;SDS011;15002;52.028;5.670;2022-09-09T08:24:49;8.25;;;2.60;;
27558;SDS011;15002;52.028;5.670;2022-09-09T08:27:15;9.95;;;2.50;;
27558;SDS011;15002;52.028;5.670;2022-09-09T08:29:40;9.25;;;2.97;;
27558;SDS011;15002;52.028;5.670;2022-09-09T08:32:06;4.80;;;1.98;;
27558;SDS011;15002;52.028;5.670;2022-09-09T08:34:31;9.15;;;2.42;;
27558;SDS011;15002;52.028;5.670;2022-09-09T08:36:57;11.70;;;2.58;;
27558;SDS011;15002;52.028;5.670;2022-09-09T08:39:23;10.35;;;2.45;;
27558;SDS011;15002;52.028;5.670;2022-09-09T08:42:08;8.15;;;2.15;;
27558;SDS011;15002;52.028;5.670;2022-09-09T08:50:34;7.80;;;2.33;;
27558;SDS011;15002;52.028;5.670;2022-09-09T08:55:53;7.32;;;1.98;;
27558;SDS011;15002;52.028;5.670;2022-09-09T08:58:26;8.45;;;2.08;;
27558;SDS011;15002;52.028;5.670;2022-09-09T09:01:00;4.57;;;1.67;;
27558;SDS011;15002;52.028;5.670;2022-09-09T09:11:39;9.02;;;1.88;;
27558;SDS011;15002;52.028;5.670;2022-09-09T09:16:43;6.53;;;1.95;;
27558;SDS011;15002;52.028;5.670;2022-09-09T09:19:17;9.27;;;1.85;;
27558;SDS011;15002;52.028;5.670;2022-09-09T09:27:00;2.95;;;1.45;;
27558;SDS011;15002;52.028;5.670;2022-09-09T09:29:38;6.15;;;2.13;;
27558;SDS011;15002;52.028;5.670;2022-09-09T09:32:07;8.32;;;2.03;;
27558;SDS011;15002;52.028;5.670;2022-09-09T09:34:38;6.88;;;1.67;;
27558;SDS011;15002;52.028;5.670;2022-09-09T09:37:17;9.27;;;1.80;;
27558;SDS011;15002;52.028;5.670;2022-09-09T09:39:52;8.25;;;2.10;;
27558;SDS011;15002;52.028;5.670;2022-09-09T09:42:18;8.45;;;1.85;;
27558;SDS011;15002;52.028;5.670;2022-09-09T09:44:44;5.55;;;1.83;;
27558;SDS011;15002;52.028;5.670;2022-09-09T09:49:38;7.63;;;1.83;;
27558;SDS011;15002;52.028;5.670;2022-09-09T09:52:05;7.15;;;1.90;;
27558;SDS011;15002;52.028;5.670;2022-09-09T09:54:33;6.72;;;2.08;;
27558;SDS011;15002;52.028;5.670;2022-09-09T09:57:13;5.07;;;1.90;;
27558;SDS011;15002;52.028;5.670;2022-09-09T09:59:41;7.07;;;1.98;;
27558;SDS011;15002;52.028;5.670;2022-09-09T10:02:18;6.75;;;2.10;;
27558;SDS011;15002;52.028;5.670;2022-09-09T10:04:46;7.50;;;2.03;;
27558;SDS011;15002;52.028;5.670;2022-09-09T10:07:19;6.75;;;2.13;;
27558;SDS011;15002;52.028;5.670;2022-09-09T10:09:47;4.88;;;1.83;;
27558;SDS011;15002;52.028;5.670;2022-09-09T10:34:03;8.35;;;1.92;;
27558;SDS011;15002;52.028;5.670;2022-09-09T10:36:33;7.60;;;2.10;;
27558;SDS011;15002;52.028;5.670;2022-09-09T10:39:28;12.45;;;2.28;;
27558;SDS011;15002;52.028;5.670;2022-09-09T10:42:05;10.05;;;2.53;;
27558;SDS011;15002;52.028;5.670;2022-09-09T10:55:14;8.77;;;2.95;;
27558;SDS011;15002;52.028;5.670;2022-09-09T10:57:44;6.95;;;2.47;;
27558;SDS011;15002;52.028;5.670;2022-09-09T11:00:15;7.53;;;2.63;;
27558;SDS011;15002;52.028;5.670;2022-09-09T11:02:44;5.28;;;2.58;;
27558;SDS011;15002;52.028;5.670;2022-09-09T11:05:21;8.25;;;2.83;;
27558;SDS011;15002;52.028;5.670;2022-09-09T11:08:02;8.95;;;2.70;;
27558;SDS011;15002;52.028;5.670;2022-09-09T11:13:17;7.88;;;2.40;;
27558;SDS011;15002;52.028;5.670;2022-09-09T11:15:52;8.95;;;3.20;;
27558;SDS011;15002;52.028;5.670;2022-09-09T11:18:25;7.65;;;2.58;;
27558;SDS011;15002;52.028;5.670;2022-09-09T11:20:56;11.38;;;3.15;;
27558;SDS011;15002;52.028;5.670;2022-09-09T11:23:42;7.28;;;2.70;;
27558;SDS011;15002;52.028;5.670;2022-09-09T11:26:18;4.53;;;2.20;;
27558;SDS011;15002;52.028;5.670;2022-09-09T11:35:29;11.00;;;2.40;;
27558;SDS011;15002;52.028;5.670;2022-09-09T11:41:00;8.55;;;2.65;;
27558;SDS011;15002;52.028;5.670;2022-09-09T11:43:33;3.53;;;2.22;;
27558;SDS011;15002;52.028;5.670;2022-09-09T11:46:07;7.28;;;2.22;;
27558;SDS011;15002;52.028;5.670;2022-09-09T11:48:38;6.47;;;2.15;;
27558;SDS011;15002;52.028;5.670;2022-09-09T11:53:59;6.70;;;2.22;;
27558;SDS011;15002;52.028;5.670;2022-09-09T11:56:30;4.93;;;2.22;;
27558;SDS011;15002;52.028;5.670;2022-09-09T11:59:04;7.47;;;2.38;;
27558;SDS011;15002;52.028;5.670;2022-09-09T12:01:44;4.43;;;2.47;;
27558;SDS011;15002;52.028;5.670;2022-09-09T12:04:12;3.53;;;1.95;;
27558;SDS011;15002;52.028;5.670;2022-09-09T12:06:45;4.10;;;1.83;;
27558;SDS011;15002;52.028;5.670;2022-09-09T12:19:39;6.55;;;1.90;;
27558;SDS011;15002;52.028;5.670;2022-09-09T12:22:07;3.13;;;1.77;;
27558;SDS011;15002;52.028;5.670;2022-09-09T12:24:47;6.78;;;2.00;;
27558;SDS011;15002;52.028;5.670;2022-09-09T12:27:23;5.05;;;2.30;;
27558;SDS011;15002;52.028;5.670;2022-09-09T12:30:12;6.57;;;2.15;;
27558;SDS011;15002;52.028;5.670;2022-09-09T12:32:40;2.58;;;1.60;;
27558;SDS011;15002;52.028;5.670;2022-09-09T12:35:09;7.63;;;2.03;;
27558;SDS011;15002;52.028;5.670;2022-09-09T12:37:44;7.65;;;2.20;;
27558;SDS011;15002;52.028;5.670;2022-09-09T12:42:49;4.40;;;2.33;;
27558;SDS011;15002;52.028;5.670;2022-09-09T12:45:25;6.32;;;2.20;;
27558;SDS011;15002;52.028;5.670;2022-09-09T12:48:08;6.05;;;2.33;;
27558;SDS011;15002;52.028;5.670;2022-09-09T12:50:45;6.10;;;2.65;;
27558;SDS011;15002;52.028;5.670;2022-09-09T12:53:21;3.83;;;2.25;;
27558;SDS011;15002;52.028;5.670;2022-09-09T12:55:55;6.13;;;2.33;;
27558;SDS011;15002;52.028;5.670;2022-09-09T12:58:27;5.53;;;2.00;;
27558;SDS011;15002;52.028;5.670;2022-09-09T13:00:58;4.63;;;1.98;;
27558;SDS011;15002;52.028;5.670;2022-09-09T13:03:25;4.47;;;1.90;;
27558;SDS011;15002;52.028;5.670;2022-09-09T13:05:51;5.05;;;1.80;;
27558;SDS011;15002;52.028;5.670;2022-09-09T13:08:18;7.80;;;2.22;;
27558;SDS011;15002;52.028;5.670;2022-09-09T13:10:56;5.57;;;1.83;;
27558;SDS011;15002;52.028;5.670;2022-09-09T13:13:50;4.47;;;1.75;;
27558;SDS011;15002;52.028;5.670;2022-09-09T13:16:26;5.60;;;1.80;;
27558;SDS011;15002;52.028;5.670;2022-09-09T13:18:58;4.40;;;2.10;;
27558;SDS011;15002;52.028;5.670;2022-09-09T13:21:35;4.22;;;1.88;;
27558;SDS011;15002;52.028;5.670;2022-09-09T13:24:03;3.40;;;1.73;;
27558;SDS011;15002;52.028;5.670;2022-09-09T13:26:58;4.63;;;2.08;;
27558;SDS011;15002;52.028;5.670;2022-09-09T13:29:29;6.78;;;2.13;;
27558;SDS011;15002;52.028;5.670;2022-09-09T13:32:03;7.05;;;2.03;;
27558;SDS011;15002;52.028;5.670;2022-09-09T13:34:34;6.25;;;2.13;;
27558;SDS011;15002;52.028;5.670;2022-09-09T13:37:01;4.25;;;2.28;;
27558;SDS011;15002;52.028;5.670;2022-09-09T13:39:30;6.50;;;2.43;;
27558;SDS011;15002;52.028;5.670;2022-09-09T13:41:59;5.13;;;1.90;;
27558;SDS011;15002;52.028;5.670;2022-09-09T13:44:28;5.72;;;2.00;;
27558;SDS011;15002;52.028;5.670;2022-09-09T13:49:38;5.30;;;1.70;;
27558;SDS011;15002;52.028;5.670;2022-09-09T13:52:04;5.53;;;1.70;;
27558;SDS011;15002;52.028;5.670;2022-09-09T13:54:35;3.90;;;1.77;;
27558;SDS011;15002;52.028;5.670;2022-09-09T13:57:00;5.32;;;1.98;;
27558;SDS011;15002;52.028;5.670;2022-09-09T13:59:26;5.90;;;2.08;;
27558;SDS011;15002;52.028;5.670;2022-09-09T14:01:52;2.70;;;1.63;;
27558;SDS011;15002;52.028;5.670;2022-09-09T14:04:18;5.57;;;2.00;;
27558;SDS011;15002;52.028;5.670;2022-09-09T14:06:47;3.10;;;1.70;;
27558;SDS011;15002;52.028;5.670;2022-09-09T14:09:14;4.78;;;1.92;;
27558;SDS011;15002;52.028;5.670;2022-09-09T14:11:41;3.58;;;1.52;;
27558;SDS011;15002;52.028;5.670;2022-09-09T14:14:07;4.32;;;1.67;;
27558;SDS011;15002;52.028;5.670;2022-09-09T14:16:33;3.80;;;1.40;;
27558;SDS011;15002;52.028;5.670;2022-09-09T14:18:59;4.93;;;1.70;;
27558;SDS011;15002;52.028;5.670;2022-09-09T14:21:25;2.47;;;1.27;;
27558;SDS011;15002;52.028;5.670;2022-09-09T14:23:51;3.30;;;1.65;;
27558;SDS011;15002;52.028;5.670;2022-09-09T14:26:18;4.10;;;2.00;;
27558;SDS011;15002;52.028;5.670;2022-09-09T14:28:45;5.40;;;1.75;;
27558;SDS011;15002;52.028;5.670;2022-09-09T14:31:12;4.20;;;1.75;;
27558;SDS011;15002;52.028;5.670;2022-09-09T14:33:42;5.17;;;1.80;;
27558;SDS011;15002;52.028;5.670;2022-09-09T14:36:08;3.28;;;1.63;;
27558;SDS011;15002;52.028;5.670;2022-09-09T14:38:36;6.00;;;2.63;;
27558;SDS011;15002;52.028;5.670;2022-09-09T14:41:07;5.75;;;2.35;;
27558;SDS011;15002;52.028;5.670;2022-09-09T14:43:37;5.13;;;2.42;;
27558;SDS011;15002;52.028;5.670;2022-09-09T14:46:06;4.35;;;2.03;;
27558;SDS011;15002;52.028;5.670;2022-09-09T14:48:33;7.03;;;1.90;;
27558;SDS011;15002;52.028;5.670;2022-09-09T14:51:07;3.47;;;1.98;;
27558;SDS011;15002;52.028;5.670;2022-09-09T14:53:34;4.18;;;2.08;;
27558;SDS011;15002;52.028;5.670;2022-09-09T14:56:07;5.13;;;1.90;;
27558;SDS011;15002;52.028;5.670;2022-09-09T14:58:34;5.03;;;2.08;;
27558;SDS011;15002;52.028;5.670;2022-09-09T15:03:57;4.80;;;2.38;;
27558;SDS011;15002;52.028;5.670;2022-09-09T15:06:28;4.57;;;2.00;;
27558;SDS011;15002;52.028;5.670;2022-09-09T15:08:58;6.20;;;2.40;;
27558;SDS011;15002;52.028;5.670;2022-09-09T15:11:26;5.05;;;2.25;;
27558;SDS011;15002;52.028;5.670;2022-09-09T15:13:53;5.97;;;2.53;;
27558;SDS011;15002;52.028;5.670;2022-09-09T15:16:19;8.55;;;2.50;;
27558;SDS011;15002;52.028;5.670;2022-09-09T15:18:46;5.30;;;2.20;;
27558;SDS011;15002;52.028;5.670;2022-09-09T15:21:17;5.00;;;2.00;;
27558;SDS011;15002;52.028;5.670;2022-09-09T15:23:44;5.50;;;1.95;;
27558;SDS011;15002;52.028;5.670;2022-09-09T15:26:10;6.35;;;2.30;;
27558;SDS011;15002;52.028;5.670;2022-09-09T15:28:39;5.70;;;2.20;;
27558;SDS011;15002;52.028;5.670;2022-09-09T15:31:15;5.25;;;2.33;;
27558;SDS011;15002;52.028;5.670;2022-09-09T15:36:40;3.50;;;2.10;;
27558;SDS011;15002;52.028;5.670;2022-09-09T15:39:08;7.53;;;2.20;;
27558;SDS011;15002;52.028;5.670;2022-09-09T15:41:37;5.93;;;2.25;;
27558;SDS011;15002;52.028;5.670;2022-09-09T15:44:04;4.07;;;1.92;;
27558;SDS011;15002;52.028;5.670;2022-09-09T15:46:34;4.57;;;1.95;;
27558;SDS011;15002;52.028;5.670;2022-09-09T15:49:11;5.05;;;2.10;;
27558;SDS011;15002;52.028;5.670;2022-09-09T15:52:02;5.75;;;2.42;;
27558;SDS011;15002;52.028;5.670;2022-09-09T15:54:31;4.03;;;1.77;;
27558;SDS011;15002;52.028;5.670;2022-09-09T15:56:59;7.57;;;3.08;;
27558;SDS011;15002;52.028;5.670;2022-09-09T15:59:28;6.30;;;2.38;;
27558;SDS011;15002;52.028;5.670;2022-09-09T16:01:54;5.22;;;2.28;;
27558;SDS011;15002;52.028;5.670;2022-09-09T16:04:21;3.97;;;2.10;;
27558;SDS011;15002;52.028;5.670;2022-09-09T16:06:54;3.65;;;2.30;;
27558;SDS011;15002;52.028;5.670;2022-09-09T16:09:28;3.50;;;2.20;;
27558;SDS011;15002;52.028;5.670;2022-09-09T16:11:58;3.90;;;2.05;;
27558;SDS011;15002;52.028;5.670;2022-09-09T16:14:26;5.82;;;2.33;;
27558;SDS011;15002;52.028;5.670;2022-09-09T16:16:52;4.25;;;2.53;;
27558;SDS011;15002;52.028;5.670;2022-09-09T16:19:18;4.25;;;2.03;;
27558;SDS011;15002;52.028;5.670;2022-09-09T16:21:47;5.25;;;2.35;;
27558;SDS011;15002;52.028;5.670;2022-09-09T16:24:15;4.53;;;2.00;;
27558;SDS011;15002;52.028;5.670;2022-09-09T16:26:44;2.38;;;1.58;;
27558;SDS011;15002;52.028;5.670;2022-09-09T16:29:12;3.40;;;1.80;;
27558;SDS011;15002;52.028;5.670;2022-09-09T16:31:39;4.05;;;1.58;;
27558;SDS011;15002;52.028;5.670;2022-09-09T16:34:05;3.08;;;1.40;;
27558;SDS011;15002;52.028;5.670;2022-09-09T16:36:32;3.72;;;1.40;;
27558;SDS011;15002;52.028;5.670;2022-09-09T16:38:59;4.68;;;1.85;;
27558;SDS011;15002;52.028;5.670;2022-09-09T16:41:27;2.72;;;1.50;;
27558;SDS011;15002;52.028;5.670;2022-09-09T16:46:20;4.38;;;1.70;;
27558;SDS011;15002;52.028;5.670;2022-09-09T16:48:47;3.15;;;1.50;;
27558;SDS011;15002;52.028;5.670;2022-09-09T16:51:19;2.72;;;1.50;;
27558;SDS011;15002;52.028;5.670;2022-09-09T16:53:53;3.72;;;1.77;;
27558;SDS011;15002;52.028;5.670;2022-09-09T16:56:21;3.80;;;1.90;;
27558;SDS011;15002;52.028;5.670;2022-09-09T16:58:51;3.88;;;2.10;;
27558;SDS011;15002;52.028;5.670;2022-09-09T17:01:22;3.65;;;1.95;;
27558;SDS011;15002;52.028;5.670;2022-09-09T17:03:52;3.38;;;2.03;;
27558;SDS011;15002;52.028;5.670;2022-09-09T17:06:21;2.13;;;1.77;;
27558;SDS011;15002;52.028;5.670;2022-09-09T17:08:48;3.97;;;2.13;;
27558;SDS011;15002;52.028;5.670;2022-09-09T17:11:23;4.03;;;2.05;;
27558;SDS011;15002;52.028;5.670;2022-09-09T17:13:49;3.03;;;1.90;;
27558;SDS011;15002;52.028;5.670;2022-09-09T17:16:16;5.13;;;2.28;;
27558;SDS011;15002;52.028;5.670;2022-09-09T17:18:46;5.63;;;2.30;;
27558;SDS011;15002;52.028;5.670;2022-09-09T17:21:12;2.42;;;2.03;;
27558;SDS011;15002;52.028;5.670;2022-09-09T17:23:40;5.32;;;2.45;;
27558;SDS011;15002;52.028;5.670;2022-09-09T17:26:07;5.93;;;2.40;;
27558;SDS011;15002;52.028;5.670;2022-09-09T17:28:36;3.72;;;2.45;;
27558;SDS011;15002;52.028;5.670;2022-09-09T17:31:03;3.38;;;2.45;;
27558;SDS011;15002;52.028;5.670;2022-09-09T17:33:32;4.90;;;2.50;;
27558;SDS011;15002;52.028;5.670;2022-09-09T17:36:00;4.25;;;2.85;;
27558;SDS011;15002;52.028;5.670;2022-09-09T17:38:31;4.97;;;3.20;;
27558;SDS011;15002;52.028;5.670;2022-09-09T17:41:03;4.95;;;2.83;;